Time;durP1;ratioP1;P1;durP2;ratioP2;P2;SDS_P1;SDS_P2;PMS_P1;PMS_P2;Temp;Humidity;BMP_temperature;BMP_pressure;BME280_temperature;BME280_humidity;BME280_pressure;Samples;Min_cycle;Max_cycle;Signal;HPM_P1;HPM_P2
2021/06/26 00:01:10;;;;;;;;;;;;;;;23.44;58.24;101446.34;2053990;28;4071;-77
2021/06/26 00:02:38;;;;;;;;;;;;;;;23.44;58.14;101444.31;2053381;28;4208;-77
2021/06/26 00:04:05;;;;;;;;;;;;;;;23.45;58.14;101439.44;2054142;28;3967;-77
2021/06/26 00:05:32;;;;;;;;;;;;;;;23.46;58.13;101436.22;2053853;28;3930;-78
2021/06/26 00:06:58;;;;;;;;;;;;;;;23.49;58.14;101440.41;2052222;28;4039;-77
2021/06/26 00:08:25;;;;;;;;;;;;;;;23.48;58.10;101435.84;2052714;28;4444;-76
2021/06/26 00:09:51;;;;;;;;;;;;;;;23.49;58.25;101440.41;2053196;28;4367;-77
2021/06/26 00:11:17;;;;;;;;;;;;;;;23.49;58.21;101437.53;2053581;28;3936;-77
2021/06/26 00:12:43;;;;;;;;;;;;;;;23.49;58.10;101434.69;2052804;28;4098;-77
2021/06/26 00:14:10;;;;;;;;;;;;;;;23.49;58.11;101441.22;2053301;28;3807;-82
2021/06/26 00:15:37;;;;;;;;;;;;;;;23.49;58.13;101435.50;2054200;28;4019;-84
2021/06/26 00:17:04;;;;;;;;;;;;;;;23.49;58.11;101438.38;2053424;28;4000;-83
2021/06/26 00:18:30;;;;;;;;;;;;;;;23.51;58.12;101441.69;2054088;28;4009;-83
2021/06/26 00:19:57;;;;;;;;;;;;;;;23.51;58.20;101435.16;2053529;28;4071;-81
2021/06/26 00:21:23;;;;;;;;;;;;;;;23.51;58.14;101440.84;2054233;28;4363;-80
2021/06/26 00:22:50;;;;;;;;;;;;;;;23.51;58.17;101438.00;2052688;28;4163;-81
2021/06/26 00:24:17;;;;;;;;;;;;;;;23.51;58.14;101440.84;2053618;28;4171;-81
2021/06/26 00:25:43;;;;;;;;;;;;;;;23.51;58.17;101450.25;2052888;28;4519;-81
2021/06/26 00:27:09;;;;;;;;;;;;;;;23.51;58.10;101443.72;2053551;28;3775;-80
2021/06/26 00:28:35;;;;;;;;;;;;;;;23.50;58.16;101445.75;2052905;28;4234;-77
2021/06/26 00:30:02;;;;;;;;;;;;;;;23.51;58.15;101443.72;2053190;28;3825;-81
2021/06/26 00:31:29;;;;;;;;;;;;;;;23.51;58.23;101441.69;2053276;28;3950;-84
2021/06/26 00:32:55;;;;;;;;;;;;;;;23.52;58.45;101439.69;2051753;28;4059;-77
2021/06/26 00:34:21;;;;;;;;;;;;;;;23.52;58.46;101446.22;2054579;28;3798;-77
2021/06/26 00:35:48;;;;;;;;;;;;;;;23.53;58.47;101445.03;2052980;28;4066;-78
2021/06/26 00:37:14;;;;;;;;;;;;;;;23.52;58.42;101440.50;2054099;28;4104;-75
2021/06/26 00:38:41;;;;;;;;;;;;;;;23.52;58.46;101442.53;2053525;28;4232;-75
2021/06/26 00:40:08;;;;;;;;;;;;;;;23.53;58.56;101442.16;2053525;28;3821;-76
2021/06/26 00:41:35;;;;;;;;;;;;;;;23.53;58.62;101442.16;2053674;28;4220;-83
2021/06/26 00:43:01;;;;;;;;;;;;;;;23.53;58.53;101444.19;2053173;28;3849;-82
2021/06/26 00:44:27;;;;;;;;;;;;;;;23.53;58.54;101441.34;2052738;28;4477;-80
2021/06/26 00:45:54;;;;;;;;;;;;;;;23.52;58.53;101436.81;2053617;28;4405;-79
2021/06/26 00:47:21;;;;;;;;;;;;;;;23.53;58.60;101444.19;2052761;28;4035;-76
2021/06/26 00:48:48;;;;;;;;;;;;;;;23.53;58.68;101445.03;2053467;28;4289;-80
2021/06/26 00:50:15;;;;;;;;;;;;;;;23.54;58.61;101445.84;2052904;28;4098;-81
2021/06/26 00:51:41;;;;;;;;;;;;;;;23.54;58.62;101431.56;2053630;28;4194;-79
2021/06/26 00:53:08;;;;;;;;;;;;;;;23.54;58.59;101449.56;2052222;28;4101;-84
2021/06/26 00:54:34;;;;;;;;;;;;;;;23.53;58.56;101442.16;2052238;28;4884;-82
2021/06/26 00:56:01;;;;;;;;;;;;;;;23.54;58.54;101443.00;2053688;28;4121;-86
2021/06/26 00:57:27;;;;;;;;;;;;;;;23.54;58.61;101449.56;2053159;28;3999;-85
2021/06/26 00:58:53;;;;;;;;;;;;;;;23.53;58.62;101441.34;2053269;28;4186;-85
2021/06/26 01:00:20;;;;;;;;;;;;;;;23.55;58.58;101453.25;2053598;28;3993;-86
2021/06/26 01:01:47;;;;;;;;;;;;;;;23.54;58.60;101443.00;2052593;28;4257;-81
2021/06/26 01:03:15;;;;;;;;;;;;;;;23.54;58.58;101441.00;2051716;28;3844;-82
2021/06/26 01:04:41;;;;;;;;;;;;;;;23.54;58.49;101445.84;2052761;28;4291;-86
2021/06/26 01:06:07;;;;;;;;;;;;;;;23.54;58.49;101445.84;2052830;28;4130;-81
2021/06/26 01:07:33;;;;;;;;;;;;;;;23.53;58.55;101445.03;2053329;28;4009;-79
2021/06/26 01:08:59;;;;;;;;;;;;;;;23.54;58.66;101446.72;2052536;28;4131;-78
2021/06/26 01:10:26;;;;;;;;;;;;;;;23.54;58.74;101446.72;2053578;28;3788;-78
2021/06/26 01:11:58;;;;;;;;;;;;;;;23.55;58.79;101451.22;2052832;28;4045;-79
2021/06/26 01:13:28;;;;;;;;;;;;;;;23.55;58.79;101451.22;2054472;28;4051;-79
2021/06/26 01:14:54;;;;;;;;;;;;;;;23.55;58.81;101450.41;2053665;28;4205;-79
2021/06/26 01:16:20;;;;;;;;;;;;;;;23.56;58.82;101457.75;2053963;28;3845;-80
2021/06/26 01:17:47;;;;;;;;;;;;;;;23.55;58.87;101456.94;2051225;28;4157;-80
2021/06/26 01:19:13;;;;;;;;;;;;;;;23.57;58.84;101459.44;2051695;28;3955;-80
2021/06/26 01:20:41;;;;;;;;;;;;;;;23.56;58.81;101450.03;2051831;28;4186;-81
2021/06/26 01:22:07;;;;;;;;;;;;;;;23.57;58.91;101456.59;2053091;28;3829;-81
2021/06/26 01:23:35;;;;;;;;;;;;;;;23.56;58.80;101452.06;2052384;28;5225;-79
2021/06/26 01:25:01;;;;;;;;;;;;;;;23.56;58.87;101447.16;2053807;28;4070;-81
2021/06/26 01:26:31;;;;;;;;;;;;;;;23.55;58.82;101445.50;2052429;28;4066;-82
2021/06/26 01:27:57;;;;;;;;;;;;;;;23.56;58.84;101447.16;2051183;28;4289;-81
2021/06/26 01:29:24;;;;;;;;;;;;;;;23.56;58.81;101447.16;2051235;28;4067;-82
2021/06/26 01:30:51;;;;;;;;;;;;;;;23.57;58.75;101445.16;2052000;28;4082;-81
2021/06/26 01:32:18;;;;;;;;;;;;;;;23.56;58.81;101447.16;2053885;28;4394;-78
2021/06/26 01:33:45;;;;;;;;;;;;;;;23.57;58.81;101453.75;2053590;28;4432;-76
2021/06/26 01:35:12;;;;;;;;;;;;;;;23.57;58.82;101450.88;2053603;28;4115;-77
2021/06/26 01:36:39;;;;;;;;;;;;;;;23.57;58.86;101445.16;2053323;28;4214;-76
2021/06/26 01:38:05;;;;;;;;;;;;;;;23.58;58.82;101451.72;2052523;28;4121;-77
2021/06/26 01:39:31;;;;;;;;;;;;;;;23.58;58.77;101460.28;2052568;28;4134;-77
2021/06/26 01:40:57;;;;;;;;;;;;;;;23.57;58.83;101453.75;2052795;28;4313;-78
2021/06/26 01:42:24;;;;;;;;;;;;;;;23.58;58.84;101448.84;2053351;28;3995;-79
2021/06/26 01:43:50;;;;;;;;;;;;;;;23.58;58.85;101455.41;2053471;28;4076;-81
2021/06/26 01:45:17;;;;;;;;;;;;;;;23.58;59.12;101449.69;2052957;28;4080;-81
2021/06/26 01:46:44;;;;;;;;;;;;;;;23.58;58.74;101455.41;2052904;28;4027;-83
2021/06/26 01:48:11;;;;;;;;;;;;;;;23.58;58.72;101449.69;2052582;28;3883;-87
2021/06/26 01:49:38;;;;;;;;;;;;;;;23.58;58.87;101449.69;2051757;28;4280;-83
2021/06/26 01:51:05;;;;;;;;;;;;;;;23.58;58.83;101452.53;2053204;28;3901;-85
2021/06/26 01:52:32;;;;;;;;;;;;;;;23.59;58.87;101450.50;2052992;28;4021;-84
2021/06/26 01:53:59;;;;;;;;;;;;;;;23.59;58.82;101459.06;2053069;28;4073;-83
2021/06/26 01:55:25;;;;;;;;;;;;;;;23.59;58.85;101453.38;2053584;28;4333;-77
2021/06/26 01:56:52;;;;;;;;;;;;;;;23.60;58.80;101463.59;2052502;28;4156;-77
2021/06/26 01:58:20;;;;;;;;;;;;;;;23.59;58.79;101461.94;2052049;28;3915;-74
2021/06/26 01:59:46;;;;;;;;;;;;;;;23.58;58.70;101466.81;2052509;28;4035;-79
2021/06/26 02:01:13;;;;;;;;;;;;;;;23.59;58.72;101461.94;2053099;28;3998;-78
2021/06/26 02:02:40;;;;;;;;;;;;;;;23.59;58.74;101462.75;2052322;28;4225;-79
2021/06/26 02:04:07;;;;;;;;;;;;;;;23.58;58.78;101461.09;2053095;28;4049;-80
2021/06/26 02:05:34;;;;;;;;;;;;;;;23.58;58.75;101461.09;2052247;28;4136;-82
2021/06/26 02:07:01;;;;;;;;;;;;;;;23.59;58.68;101464.78;2053181;28;4002;-82
2021/06/26 02:08:28;;;;;;;;;;;;;;;23.59;58.77;101459.06;2053884;28;4134;-88
2021/06/26 02:09:55;;;;;;;;;;;;;;;23.60;58.69;101463.59;2053381;28;4206;-85
2021/06/26 02:11:22;;;;;;;;;;;;;;;23.58;58.66;101457.41;2053352;28;4078;-82
2021/06/26 02:12:49;;;;;;;;;;;;;;;23.58;58.66;101452.53;2052934;28;4079;-85
2021/06/26 02:14:16;;;;;;;;;;;;;;;23.59;58.72;101453.38;2052665;28;3928;-84
2021/06/26 02:15:42;;;;;;;;;;;;;;;23.59;58.72;101456.22;2052843;28;4039;-84
2021/06/26 02:17:09;;;;;;;;;;;;;;;23.60;58.59;101460.72;2052059;28;4642;-83
2021/06/26 02:18:36;;;;;;;;;;;;;;;23.59;58.62;101456.22;2053066;28;4195;-82
2021/06/26 02:20:03;;;;;;;;;;;;;;;23.59;58.60;101456.22;2053319;28;4175;-83
2021/06/26 02:21:30;;;;;;;;;;;;;;;23.59;58.57;101456.22;2053274;28;3863;-83
2021/06/26 02:22:56;;;;;;;;;;;;;;;23.59;58.61;101457.06;2052752;28;4241;-80
2021/06/26 02:24:22;;;;;;;;;;;;;;;23.59;58.51;101459.91;2051903;28;4045;-81
2021/06/26 02:25:48;;;;;;;;;;;;;;;23.59;58.52;101459.06;2053360;28;4172;-80
2021/06/26 02:27:14;;;;;;;;;;;;;;;23.60;58.62;101458.75;2052631;28;4099;-77
2021/06/26 02:28:41;;;;;;;;;;;;;;;23.60;58.52;101467.31;2053027;28;4136;-76
2021/06/26 02:30:07;;;;;;;;;;;;;;;23.60;58.67;101472.16;2051812;28;3800;-76
2021/06/26 02:31:33;;;;;;;;;;;;;;;23.61;58.61;101465.28;2053057;28;3944;-77
2021/06/26 02:32:59;;;;;;;;;;;;;;;23.60;58.67;101461.59;2051234;28;4265;-77
2021/06/26 02:34:25;;;;;;;;;;;;;;;23.60;58.61;101460.72;2052506;28;4035;-77
2021/06/26 02:35:52;;;;;;;;;;;;;;;23.60;58.56;101470.16;2052060;28;4212;-78
2021/06/26 02:37:18;;;;;;;;;;;;;;;23.61;58.58;101471.81;2051973;28;4059;-77
2021/06/26 02:38:44;;;;;;;;;;;;;;;23.60;58.63;101469.31;2052873;28;4225;-85
2021/06/26 02:40:11;;;;;;;;;;;;;;;23.61;58.63;101471.00;2052325;28;3974;-85
2021/06/26 02:41:37;;;;;;;;;;;;;;;23.59;58.52;101468.47;2052444;28;4024;-82
2021/06/26 02:43:03;;;;;;;;;;;;;;;23.61;58.51;101471.81;2052021;28;4016;-83
2021/06/26 02:44:29;;;;;;;;;;;;;;;23.61;58.58;101473.84;2052407;28;4054;-84
2021/06/26 02:45:55;;;;;;;;;;;;;;;23.61;58.57;101471.00;2052121;28;4434;-82
2021/06/26 02:47:22;;;;;;;;;;;;;;;23.60;58.54;101470.16;2053037;28;4068;-80
2021/06/26 02:48:48;;;;;;;;;;;;;;;23.61;58.58;101465.28;2053387;28;4231;-79
2021/06/26 02:50:14;;;;;;;;;;;;;;;23.60;58.56;101467.31;2053632;28;4082;-81
2021/06/26 02:51:40;;;;;;;;;;;;;;;23.61;58.51;101462.41;2054312;28;4223;-79
2021/06/26 02:53:06;;;;;;;;;;;;;;;23.61;58.57;101465.28;2054278;28;3933;-79
2021/06/26 02:54:32;;;;;;;;;;;;;;;23.61;58.59;101465.28;2054195;28;4252;-78
2021/06/26 02:55:59;;;;;;;;;;;;;;;23.61;58.60;101471.00;2054176;28;4056;-80
2021/06/26 02:57:25;;;;;;;;;;;;;;;23.61;58.55;101471.00;2054004;28;4097;-88
2021/06/26 02:58:51;;;;;;;;;;;;;;;23.60;58.58;101470.16;2054001;28;4222;-82
2021/06/26 03:00:18;;;;;;;;;;;;;;;23.61;58.46;101473.84;2054152;28;4078;-85
2021/06/26 03:01:44;;;;;;;;;;;;;;;23.61;58.49;101482.41;2053439;28;4237;-83
2021/06/26 03:03:11;;;;;;;;;;;;;;;23.61;58.44;101477.53;2053989;28;4038;-83
2021/06/26 03:04:37;;;;;;;;;;;;;;;23.61;58.45;101480.38;2052741;28;4215;-84
2021/06/26 03:06:03;;;;;;;;;;;;;;;23.62;58.37;101484.06;2054278;28;5097;-85
2021/06/26 03:07:30;;;;;;;;;;;;;;;23.62;58.37;101484.06;2053254;28;4120;-85
2021/06/26 03:08:57;;;;;;;;;;;;;;;23.61;58.36;101485.28;2052334;28;4932;-84
2021/06/26 03:10:23;;;;;;;;;;;;;;;23.60;58.38;101484.44;2053894;28;3895;-83
2021/06/26 03:11:49;;;;;;;;;;;;;;;23.61;58.37;101482.41;2053821;28;4241;-84
2021/06/26 03:13:15;;;;;;;;;;;;;;;23.61;58.25;101482.41;2053660;28;4404;-84
2021/06/26 03:14:42;;;;;;;;;;;;;;;23.61;58.32;101485.28;2053381;28;4099;-78
2021/06/26 03:16:08;;;;;;;;;;;;;;;23.61;58.35;101482.41;2054038;28;4275;-83
2021/06/26 03:17:35;;;;;;;;;;;;;;;23.62;58.31;101484.06;2052432;28;4267;-80
2021/06/26 03:19:02;;;;;;;;;;;;;;;23.61;58.30;101485.28;2054193;28;3916;-83
2021/06/26 03:20:29;;;;;;;;;;;;;;;23.60;58.32;101487.31;2053278;28;3936;-78
2021/06/26 03:21:56;;;;;;;;;;;;;;;23.55;57.64;101490.38;2053364;28;4217;-78
2021/06/26 03:23:22;;;;;;;;;;;;;;;23.49;57.10;101495.50;2052782;28;4283;-78
2021/06/26 03:24:49;;;;;;;;;;;;;;;23.45;56.73;101483.09;2053261;28;4853;-70
2021/06/26 03:26:15;;;;;;;;;;;;;;;23.44;56.97;101481.44;2053291;28;4144;-78
2021/06/26 03:27:42;;;;;;;;;;;;;;;23.47;57.10;101491.31;2052085;28;4319;-79
2021/06/26 03:29:09;;;;;;;;;;;;;;;23.49;57.00;101488.97;2053272;28;4082;-78
2021/06/26 03:30:36;;;;;;;;;;;;;;;23.50;56.92;101488.59;2052213;28;4193;-76
2021/06/26 03:32:03;;;;;;;;;;;;;;;23.53;56.88;101492.75;2054059;28;3939;-86
2021/06/26 03:33:30;;;;;;;;;;;;;;;23.53;56.84;101499.28;2054710;28;4023;-84
2021/06/26 03:34:57;;;;;;;;;;;;;;;23.53;56.89;101498.47;2053344;28;4254;-84
2021/06/26 03:36:24;;;;;;;;;;;;;;;23.53;56.82;101493.59;2055478;28;4103;-83
2021/06/26 03:37:50;;;;;;;;;;;;;;;23.54;56.79;101498.13;2054592;28;4016;-87
2021/06/26 03:39:17;;;;;;;;;;;;;;;23.54;56.71;101498.13;2054480;28;3980;-84
2021/06/26 03:40:44;;;;;;;;;;;;;;;23.54;56.85;101495.28;2053650;28;4254;-78
2021/06/26 03:42:10;;;;;;;;;;;;;;;23.55;56.78;101502.63;2053686;28;3815;-85
2021/06/26 03:43:36;;;;;;;;;;;;;;;23.55;56.87;101498.94;2054677;28;4033;-85
2021/06/26 03:45:03;;;;;;;;;;;;;;;23.55;56.84;101496.94;2054219;28;4057;-85
2021/06/26 03:46:30;;;;;;;;;;;;;;;23.54;56.85;101500.97;2053565;28;4110;-87
2021/06/26 03:47:56;;;;;;;;;;;;;;;23.55;56.86;101496.94;2053641;28;4194;-87
2021/06/26 03:49:22;;;;;;;;;;;;;;;23.55;56.93;101493.25;2053893;28;4042;-86
2021/06/26 03:50:50;;;;;;;;;;;;;;;23.55;56.84;101499.78;2053696;28;4228;-86
2021/06/26 03:52:17;;;;;;;;;;;;;;;23.55;56.79;101499.78;2054325;28;3904;-86
2021/06/26 03:53:46;;;;;;;;;;;;;;;23.57;56.87;101502.31;2054466;28;4198;-86
2021/06/26 03:55:12;;;;;;;;;;;;;;;23.56;56.76;101498.59;2053686;28;4098;-82
2021/06/26 03:56:38;;;;;;;;;;;;;;;23.56;57.02;101495.72;2053052;28;5007;-85
2021/06/26 03:58:05;;;;;;;;;;;;;;;23.55;56.83;101505.50;2054183;28;4401;-84
2021/06/26 03:59:32;;;;;;;;;;;;;;;23.55;56.85;101502.63;2053979;28;4097;-82
2021/06/26 04:00:59;;;;;;;;;;;;;;;23.55;56.80;101508.34;2053757;28;4278;-85
2021/06/26 04:02:25;;;;;;;;;;;;;;;23.56;56.81;101512.88;2053034;28;4090;-83
2021/06/26 04:03:51;;;;;;;;;;;;;;;23.56;56.67;101510.00;2054617;28;4058;-87
2021/06/26 04:05:17;;;;;;;;;;;;;;;23.56;56.77;101510.00;2054207;28;4090;-85
2021/06/26 04:06:43;;;;;;;;;;;;;;;23.55;56.68;101514.06;2054627;28;4187;-87
2021/06/26 04:08:10;;;;;;;;;;;;;;;23.56;56.78;101509.19;2054068;28;4150;-87
2021/06/26 04:09:36;;;;;;;;;;;;;;;23.55;56.61;101511.22;2053032;28;4912;-87
2021/06/26 04:11:02;;;;;;;;;;;;;;;23.55;56.70;101511.22;2052040;28;4088;-85
2021/06/26 04:12:29;;;;;;;;;;;;;;;23.56;56.72;101514.91;2052099;28;4294;-82
2021/06/26 04:13:55;;;;;;;;;;;;;;;23.56;56.75;101512.03;2053267;28;4215;-82
2021/06/26 04:15:21;;;;;;;;;;;;;;;23.55;56.68;101507.53;2052858;28;4097;-82
2021/06/26 04:16:47;;;;;;;;;;;;;;;23.55;56.71;101504.66;2052238;28;3997;-81
2021/06/26 04:18:14;;;;;;;;;;;;;;;23.56;56.70;101509.19;2054111;28;4173;-82
2021/06/26 04:19:41;;;;;;;;;;;;;;;23.55;56.75;101510.38;2053115;28;4089;-81
2021/06/26 04:21:07;;;;;;;;;;;;;;;23.55;56.59;101510.38;2052778;28;4240;-82
2021/06/26 04:22:34;;;;;;;;;;;;;;;23.56;56.71;101512.03;2052890;28;5111;-78
2021/06/26 04:24:01;;;;;;;;;;;;;;;23.55;56.67;101514.06;2053399;28;4157;-82
2021/06/26 04:25:28;;;;;;;;;;;;;;;23.55;56.49;101507.53;2054104;28;4201;-82
2021/06/26 04:26:55;;;;;;;;;;;;;;;23.55;56.58;101507.53;2052776;28;4273;-82
2021/06/26 04:28:21;;;;;;;;;;;;;;;23.54;56.59;101512.41;2053277;28;3787;-82
2021/06/26 04:29:48;;;;;;;;;;;;;;;23.55;56.63;101511.22;2053313;28;4024;-82
2021/06/26 04:31:14;;;;;;;;;;;;;;;23.54;56.64;101509.56;2052978;28;4059;-81
2021/06/26 04:32:40;;;;;;;;;;;;;;;23.54;56.63;101505.84;2052881;28;4212;-81
2021/06/26 04:34:07;;;;;;;;;;;;;;;23.54;56.50;101503.84;2053990;28;4072;-81
2021/06/26 04:35:33;;;;;;;;;;;;;;;23.54;56.57;101506.69;2053265;28;3921;-81
2021/06/26 04:36:59;;;;;;;;;;;;;;;23.54;56.59;101508.69;2052765;28;4371;-82
2021/06/26 04:38:25;;;;;;;;;;;;;;;23.54;56.55;101512.41;2054009;28;4061;-81
2021/06/26 04:39:51;;;;;;;;;;;;;;;23.54;56.53;101511.53;2053007;28;4172;-81
2021/06/26 04:41:18;;;;;;;;;;;;;;;23.54;56.56;101509.56;2053298;28;4204;-82
2021/06/26 04:42:45;;;;;;;;;;;;;;;23.54;56.42;101515.25;2053122;28;4213;-81
2021/06/26 04:44:12;;;;;;;;;;;;;;;23.54;56.56;101512.41;2053469;28;4110;-82
2021/06/26 04:45:38;;;;;;;;;;;;;;;23.54;56.56;101514.41;2052265;28;4319;-84
2021/06/26 04:47:05;;;;;;;;;;;;;;;23.54;56.54;101514.41;2053194;28;3915;-84
2021/06/26 04:48:31;;;;;;;;;;;;;;;23.53;56.56;101512.75;2052948;28;3815;-83
2021/06/26 04:49:57;;;;;;;;;;;;;;;23.53;56.48;101513.56;2052637;28;4132;-88
2021/06/26 04:51:23;;;;;;;;;;;;;;;23.54;56.59;101520.13;2054285;28;4185;-88
2021/06/26 04:52:50;;;;;;;;;;;;;;;23.54;56.53;101518.13;2051870;28;4245;-87
2021/06/26 04:54:17;;;;;;;;;;;;;;;23.55;56.60;101524.66;2053253;28;4070;-83
2021/06/26 04:55:51;;;;;;;;;;;;;;;23.54;56.64;101518.13;2054135;28;4246;-81
2021/06/26 04:57:18;;;;;;;;;;;;;;;23.55;56.56;101530.38;2053956;28;3841;-82
2021/06/26 04:58:45;;;;;;;;;;;;;;;23.55;56.67;101527.53;2054866;28;4201;-80
2021/06/26 05:00:12;;;;;;;;;;;;;;;23.54;56.69;101526.69;2053058;28;3894;-81
2021/06/26 05:01:39;;;;;;;;;;;;;;;23.55;56.72;101527.53;2053801;28;3983;-80
2021/06/26 05:03:05;;;;;;;;;;;;;;;23.55;56.78;101525.50;2053775;28;4218;-82
2021/06/26 05:04:31;;;;;;;;;;;;;;;23.54;56.73;101523.84;2053218;28;4045;-82
2021/06/26 05:06:00;;;;;;;;;;;;;;;23.54;56.78;101528.69;2052100;28;4242;-80
2021/06/26 05:07:26;;;;;;;;;;;;;;;23.54;56.85;101529.53;2053782;28;3777;-81
2021/06/26 05:08:52;;;;;;;;;;;;;;;23.54;56.77;101534.41;2052222;28;4157;-81
2021/06/26 05:10:18;;;;;;;;;;;;;;;23.53;56.84;101527.84;2052918;28;3884;-80
2021/06/26 05:11:44;;;;;;;;;;;;;;;23.53;56.80;101532.75;2052822;28;4368;-76
2021/06/26 05:13:11;;;;;;;;;;;;;;;23.54;56.80;101525.84;2053033;28;4384;-76
2021/06/26 05:14:37;;;;;;;;;;;;;;;23.54;56.87;101535.25;2053257;28;4202;-75
2021/06/26 05:16:03;;;;;;;;;;;;;;;23.54;56.87;101538.13;2052661;28;3873;-77
2021/06/26 05:17:30;;;;;;;;;;;;;;;23.54;56.88;101534.41;2052637;28;3921;-77
2021/06/26 05:18:56;;;;;;;;;;;;;;;23.53;56.89;101530.72;2052867;28;4204;-74
2021/06/26 05:20:22;;;;;;;;;;;;;;;23.54;56.79;101534.41;2052959;28;4058;-79
2021/06/26 05:21:48;;;;;;;;;;;;;;;23.53;56.87;101530.72;2051063;28;4437;-80
2021/06/26 05:23:15;;;;;;;;;;;;;;;23.54;57.01;101535.25;2053754;28;3934;-80
2021/06/26 05:24:42;;;;;;;;;;;;;;;23.53;57.06;101539.28;2053462;28;4199;-80
2021/06/26 05:26:09;;;;;;;;;;;;;;;23.54;57.07;101540.97;2054267;28;3922;-81
2021/06/26 05:27:36;;;;;;;;;;;;;;;23.53;56.99;101542.13;2052307;28;4070;-80
2021/06/26 05:29:03;;;;;;;;;;;;;;;23.53;57.13;101535.59;2052415;28;4083;-78
2021/06/26 05:30:29;;;;;;;;;;;;;;;23.53;57.09;101539.28;2052883;28;4035;-84
2021/06/26 05:31:56;;;;;;;;;;;;;;;23.53;57.08;101545.00;2054203;28;4248;-84
2021/06/26 05:33:22;;;;;;;;;;;;;;;23.54;57.23;101545.81;2053962;28;3896;-85
2021/06/26 05:34:49;;;;;;;;;;;;;;;23.54;57.10;101542.97;2052410;28;4051;-83
2021/06/26 05:36:16;;;;;;;;;;;;;;;23.54;57.00;101546.69;2053411;28;3913;-82
2021/06/26 05:37:43;;;;;;;;;;;;;;;23.54;57.01;101548.69;2052464;28;4084;-86
2021/06/26 05:39:10;;;;;;;;;;;;;;;23.52;57.01;101540.47;2053092;28;4054;-83
2021/06/26 05:40:37;;;;;;;;;;;;;;;23.54;57.03;101549.53;2053022;28;4218;-83
2021/06/26 05:42:04;;;;;;;;;;;;;;;23.54;57.07;101549.53;2050542;28;3876;-85
2021/06/26 05:43:31;;;;;;;;;;;;;;;23.54;57.21;101546.69;2052294;28;4164;-84
2021/06/26 05:44:58;;;;;;;;;;;;;;;23.54;57.08;101542.97;2052728;28;4269;-87
2021/06/26 05:46:24;;;;;;;;;;;;;;;23.55;57.03;101550.38;2052906;28;4154;-86
2021/06/26 05:47:51;;;;;;;;;;;;;;;23.54;57.10;101543.84;2052783;28;4248;-87
2021/06/26 05:49:18;;;;;;;;;;;;;;;23.54;57.03;101546.69;2052128;28;3911;-79
2021/06/26 05:50:45;;;;;;;;;;;;;;;23.54;57.10;101543.84;2051929;28;4214;-78
2021/06/26 05:52:12;;;;;;;;;;;;;;;23.54;57.09;101548.69;2052816;28;3889;-78
2021/06/26 05:53:38;;;;;;;;;;;;;;;23.54;57.02;101551.53;2052007;28;4026;-78
2021/06/26 05:55:05;;;;;;;;;;;;;;;23.54;57.06;101548.69;2053110;28;4430;-78
2021/06/26 05:56:31;;;;;;;;;;;;;;;23.54;57.01;101545.81;2052408;28;4049;-78
2021/06/26 05:57:58;;;;;;;;;;;;;;;23.54;56.98;101543.84;2053198;28;4220;-77
2021/06/26 05:59:24;;;;;;;;;;;;;;;23.53;57.00;101541.31;2053218;28;3947;-78
2021/06/26 06:00:51;;;;;;;;;;;;;;;23.55;57.04;101541.81;2051891;28;4234;-77
2021/06/26 06:02:17;;;;;;;;;;;;;;;23.53;56.98;101545.00;2052047;28;4166;-78
2021/06/26 06:03:46;;;;;;;;;;;;;;;23.53;56.92;101545.00;2052233;28;4394;-79
2021/06/26 06:05:13;;;;;;;;;;;;;;;23.54;56.92;101545.81;2052842;28;3910;-82
2021/06/26 06:06:40;;;;;;;;;;;;;;;23.54;56.99;101551.53;2051215;28;4336;-82
2021/06/26 06:08:06;;;;;;;;;;;;;;;23.54;56.96;101546.69;2052839;28;4135;-77
2021/06/26 06:09:32;;;;;;;;;;;;;;;23.54;56.98;101549.53;2053008;28;3863;-77
2021/06/26 06:10:59;;;;;;;;;;;;;;;23.55;57.11;101547.50;2051994;28;5110;-79
2021/06/26 06:12:25;;;;;;;;;;;;;;;23.54;57.00;101542.97;2052316;28;3907;-79
2021/06/26 06:13:52;;;;;;;;;;;;;;;23.54;57.10;101538.13;2051416;28;4200;-78
2021/06/26 06:15:19;;;;;;;;;;;;;;;23.55;56.99;101544.66;2052680;28;3951;-79
2021/06/26 06:16:45;;;;;;;;;;;;;;;23.54;57.01;101545.81;2052209;28;4057;-81
2021/06/26 06:18:11;;;;;;;;;;;;;;;23.53;57.04;101547.84;2052523;28;3933;-80
2021/06/26 06:19:40;;;;;;;;;;;;;;;23.55;57.10;101541.81;2052349;28;4026;-78
2021/06/26 06:21:07;;;;;;;;;;;;;;;23.54;57.18;101546.69;2052904;28;4079;-80
2021/06/26 06:22:34;;;;;;;;;;;;;;;23.54;57.18;101543.84;2052070;28;4133;-77
2021/06/26 06:24:01;;;;;;;;;;;;;;;23.54;57.13;101543.84;2053724;28;4124;-80
2021/06/26 06:25:28;;;;;;;;;;;;;;;23.52;57.22;101536.81;2054127;28;3884;-81
2021/06/26 06:27:04;;;;;;;;;;;;;;;23.55;57.28;101544.66;2053448;28;4076;-80
2021/06/26 06:28:30;;;;;;;;;;;;;;;23.54;57.20;101551.53;2054473;28;4073;-80
2021/06/26 06:29:57;;;;;;;;;;;;;;;23.54;57.22;101534.41;2053365;28;4043;-85
2021/06/26 06:31:23;;;;;;;;;;;;;;;23.54;57.27;101543.84;2053935;28;4089;-78
2021/06/26 06:32:50;;;;;;;;;;;;;;;23.54;57.39;101543.84;2053766;28;4036;-88
2021/06/26 06:34:19;;;;;;;;;;;;;;;23.54;57.32;101549.53;2054001;28;4064;-82
2021/06/26 06:35:46;;;;;;;;;;;;;;;23.54;57.29;101546.69;2054047;28;4029;-78
2021/06/26 06:37:13;;;;;;;;;;;;;;;23.54;57.41;101549.53;2053782;28;4157;-78
2021/06/26 06:38:39;;;;;;;;;;;;;;;23.54;57.40;101555.25;2054100;28;4077;-77
2021/06/26 06:40:06;;;;;;;;;;;;;;;23.55;57.51;101551.19;2053660;28;4064;-79
2021/06/26 06:41:33;;;;;;;;;;;;;;;23.53;57.40;101553.56;2053750;28;4042;-75
2021/06/26 06:43:00;;;;;;;;;;;;;;;23.54;57.45;101555.25;2051860;28;4215;-77
2021/06/26 06:44:26;;;;;;;;;;;;;;;23.55;57.51;101553.22;2054094;28;3954;-75
2021/06/26 06:45:53;;;;;;;;;;;;;;;23.53;57.52;101550.72;2052170;28;4331;-80
2021/06/26 06:47:19;;;;;;;;;;;;;;;23.54;57.45;101549.53;2053002;28;3962;-76
2021/06/26 06:48:46;;;;;;;;;;;;;;;23.54;57.53;101552.41;2052356;28;4247;-78
2021/06/26 06:50:13;;;;;;;;;;;;;;;23.54;57.44;101549.53;2052106;28;4060;-77
2021/06/26 06:51:40;;;;;;;;;;;;;;;23.55;57.45;101548.34;2051856;28;4134;-79
2021/06/26 06:53:06;;;;;;;;;;;;;;;23.55;57.47;101556.91;2052733;28;4062;-82
2021/06/26 06:54:34;;;;;;;;;;;;;;;23.53;57.42;101553.56;2051849;28;3913;-86
2021/06/26 06:56:01;;;;;;;;;;;;;;;23.53;57.43;101553.56;2050309;28;4630;-85
2021/06/26 06:57:27;;;;;;;;;;;;;;;23.55;57.42;101556.09;2051952;28;3899;-84
2021/06/26 06:58:53;;;;;;;;;;;;;;;23.54;57.45;101558.09;2053644;28;4236;-84
2021/06/26 07:00:19;;;;;;;;;;;;;;;23.53;57.40;101550.72;2053969;28;4390;-85
2021/06/26 07:01:45;;;;;;;;;;;;;;;23.54;57.44;101552.41;2053906;28;5097;-85
2021/06/26 07:03:11;;;;;;;;;;;;;;;23.54;57.28;101552.41;2053609;28;3888;-84
2021/06/26 07:04:37;;;;;;;;;;;;;;;23.54;57.32;101545.81;2053286;28;4195;-85
2021/06/26 07:06:03;;;;;;;;;;;;;;;23.54;57.29;101555.25;2053163;28;4054;-83
2021/06/26 07:07:30;;;;;;;;;;;;;;;23.54;57.30;101545.81;2054186;28;4108;-84
2021/06/26 07:08:57;;;;;;;;;;;;;;;23.53;57.39;101550.72;2054072;28;4212;-83
2021/06/26 07:10:25;;;;;;;;;;;;;;;23.53;57.36;101547.84;2054360;28;3924;-84
2021/06/26 07:11:51;;;;;;;;;;;;;;;23.53;57.32;101542.13;2054555;28;4198;-85
2021/06/26 07:13:17;;;;;;;;;;;;;;;23.54;57.30;101545.81;2054944;28;4095;-85
2021/06/26 07:14:44;;;;;;;;;;;;;;;23.54;57.32;101546.69;2054228;28;4011;-86
2021/06/26 07:16:11;;;;;;;;;;;;;;;23.54;57.27;101548.69;2054003;28;4067;-86
2021/06/26 07:17:38;;;;;;;;;;;;;;;23.55;57.34;101551.19;2053533;28;4191;-85
2021/06/26 07:19:04;;;;;;;;;;;;;;;23.55;57.27;101559.75;2054117;28;5134;-86
2021/06/26 07:20:31;;;;;;;;;;;;;;;23.55;57.21;101550.38;2054386;28;3908;-87
2021/06/26 07:21:58;;;;;;;;;;;;;;;23.55;57.41;101553.22;2053684;28;4030;-87
2021/06/26 07:23:25;;;;;;;;;;;;;;;23.54;57.26;101546.69;2054440;28;4373;-88
2021/06/26 07:24:51;;;;;;;;;;;;;;;23.54;57.37;101548.69;2053872;28;4005;-87
2021/06/26 07:26:18;;;;;;;;;;;;;;;23.55;57.33;101551.19;2054083;28;4067;-86
2021/06/26 07:27:44;;;;;;;;;;;;;;;23.55;57.25;101541.81;2052637;28;4056;-87
2021/06/26 07:29:10;;;;;;;;;;;;;;;23.54;57.30;101543.84;2054556;28;4071;-87
2021/06/26 07:30:37;;;;;;;;;;;;;;;23.54;57.34;101540.97;2053788;28;4155;-88
2021/06/26 07:32:03;;;;;;;;;;;;;;;23.55;57.30;101539.78;2054188;28;3814;-87